createdAt,value
2023-02-15T00:00:12.704Z,17.85
2023-02-15T00:03:03.813Z,18.13
2023-02-15T00:05:32.600Z,18.25
2023-02-15T00:08:00.993Z,18.48
2023-02-15T00:10:29.208Z,16.95
2023-02-15T00:12:58.147Z,18.65
2023-02-15T00:17:56.651Z,22.27
2023-02-15T00:20:24.823Z,21.45
2023-02-15T00:22:52.698Z,15.73
2023-02-15T00:25:20.924Z,19.33
2023-02-15T00:27:48.866Z,23.88
2023-02-15T00:30:17.236Z,19.42
2023-02-15T00:32:45.310Z,24.95
2023-02-15T00:35:14.978Z,19.20
2023-02-15T00:40:11.749Z,19.42
2023-02-15T00:42:39.733Z,16.15
2023-02-15T00:45:08.661Z,19.50
2023-02-15T00:47:36.636Z,18.25
2023-02-15T00:50:05.350Z,20.10
2023-02-15T00:52:34.987Z,20.52
2023-02-15T00:55:03.208Z,16.00
2023-02-15T00:57:31.107Z,19.38
2023-02-15T00:59:59.359Z,19.08
2023-02-15T01:02:27.262Z,21.02
2023-02-15T01:04:55.892Z,18.33
2023-02-15T01:07:23.871Z,19.48
2023-02-15T01:09:53.659Z,21.67
2023-02-15T01:12:21.565Z,17.60
2023-02-15T01:14:49.846Z,16.60
2023-02-15T01:17:17.715Z,18.60
2023-02-15T01:19:46.234Z,19.33
2023-02-15T01:22:14.095Z,18.83
2023-02-15T01:24:43.453Z,18.33
2023-02-15T01:27:12.810Z,21.70
2023-02-15T01:29:41.027Z,22.48
2023-02-15T01:32:09.000Z,19.45
2023-02-15T01:34:37.341Z,22.75
2023-02-15T01:37:05.282Z,23.77
2023-02-15T01:39:36.101Z,24.25
2023-02-15T01:42:04.119Z,23.75
2023-02-15T01:44:51.020Z,28.60
2023-02-15T01:47:20.474Z,24.23
2023-02-15T01:49:49.210Z,23.10
2023-02-15T01:52:19.901Z,26.63
2023-02-15T01:54:49.373Z,27.73
2023-02-15T01:57:20.180Z,25.27
2023-02-15T01:59:53.340Z,23.42
2023-02-15T02:02:25.244Z,24.55
2023-02-15T02:04:54.392Z,24.15
2023-02-15T02:07:24.389Z,27.52
2023-02-15T02:09:52.580Z,28.75
2023-02-15T02:12:21.041Z,29.17
2023-02-15T02:14:51.606Z,22.50
2023-02-15T02:17:22.360Z,26.33
2023-02-15T02:20:17.856Z,26.10
2023-02-15T02:23:03.665Z,24.75
2023-02-15T02:25:55.959Z,21.48
2023-02-15T02:28:35.429Z,21.17
2023-02-15T02:31:18.586Z,22.75
2023-02-15T02:33:56.268Z,22.15
2023-02-15T02:36:27.752Z,25.42
2023-02-15T02:39:03.111Z,23.13
2023-02-15T02:41:35.012Z,23.38
2023-02-15T02:44:06.831Z,22.05
2023-02-15T02:46:37.662Z,19.13
2023-02-15T02:49:07.052Z,24.02
2023-02-15T02:51:35.239Z,19.48
2023-02-15T02:54:06.419Z,23.75
2023-02-15T02:56:38.448Z,25.33
2023-02-15T02:59:08.493Z,23.30
2023-02-15T03:01:39.785Z,25.27
2023-02-15T03:04:10.726Z,23.98
2023-02-15T03:06:42.821Z,23.17
2023-02-15T03:09:15.425Z,23.48
2023-02-15T03:11:45.033Z,27.70
2023-02-15T03:14:13.864Z,23.35
2023-02-15T03:16:42.806Z,21.83
2023-02-15T03:19:14.675Z,24.70
2023-02-15T03:21:50.528Z,23.80
2023-02-15T03:24:22.401Z,26.05
2023-02-15T03:26:52.590Z,23.48
2023-02-15T03:29:21.688Z,23.40
2023-02-15T03:34:19.385Z,27.30
2023-02-15T03:36:48.878Z,27.25
2023-02-15T03:39:20.742Z,27.10
2023-02-15T03:41:51.972Z,24.27
2023-02-15T03:44:22.860Z,25.45
2023-02-15T03:46:54.363Z,21.80
2023-02-15T03:49:26.979Z,24.42
2023-02-15T03:51:56.765Z,32.28
2023-02-15T03:54:48.083Z,21.77
2023-02-15T03:57:36.225Z,27.92
2023-02-15T04:00:22.942Z,31.67
2023-02-15T04:02:56.580Z,23.63
2023-02-15T04:05:26.342Z,18.70
2023-02-15T04:07:54.629Z,27.38
2023-02-15T04:10:40.592Z,30.77
2023-02-15T04:13:08.866Z,23.23
2023-02-15T04:15:54.473Z,22.63
2023-02-15T04:18:38.159Z,24.45
2023-02-15T04:21:25.196Z,17.02
2023-02-15T04:24:10.542Z,25.25
2023-02-15T04:26:38.538Z,23.02
2023-02-15T04:29:06.851Z,23.60
2023-02-15T04:31:34.798Z,25.85
2023-02-15T04:34:03.097Z,22.23
2023-02-15T04:36:32.398Z,23.13
2023-02-15T04:39:00.574Z,24.52
2023-02-15T04:41:28.528Z,26.33
2023-02-15T04:43:57.446Z,18.55
2023-02-15T04:46:25.506Z,22.85
2023-02-15T04:48:54.053Z,20.25
2023-02-15T04:51:22.030Z,20.77
2023-02-15T04:53:53.664Z,25.65
2023-02-15T04:56:21.973Z,21.42
2023-02-15T04:58:50.540Z,22.38
2023-02-15T05:01:21.411Z,24.80
2023-02-15T05:03:49.589Z,23.65
2023-02-15T05:06:17.633Z,29.08
2023-02-15T05:08:45.832Z,22.88
2023-02-15T05:11:15.113Z,21.90
2023-02-15T05:13:43.453Z,19.08
2023-02-15T05:16:11.388Z,20.77
2023-02-15T05:18:39.642Z,19.83
2023-02-15T05:21:07.701Z,22.85
2023-02-15T05:23:35.945Z,22.20
2023-02-15T05:26:21.580Z,21.27
2023-02-15T05:28:51.230Z,23.30
2023-02-15T05:31:20.559Z,25.13
2023-02-15T05:33:49.241Z,23.02
2023-02-15T05:36:17.299Z,27.00
2023-02-15T05:38:45.457Z,22.42
2023-02-15T05:41:13.647Z,24.60
2023-02-15T05:43:42.022Z,24.55
2023-02-15T05:46:11.466Z,19.75
2023-02-15T05:48:39.665Z,26.75
2023-02-15T05:51:08.897Z,27.55
2023-02-15T05:56:05.397Z,24.38
2023-02-15T05:58:34.433Z,25.73
2023-02-15T06:01:09.529Z,33.90
2023-02-15T06:03:39.241Z,25.77
2023-02-15T06:06:07.794Z,29.52
2023-02-15T06:08:36.909Z,34.47
2023-02-15T06:11:06.611Z,26.73
2023-02-15T06:13:37.991Z,24.58
2023-02-15T06:16:07.458Z,24.95
2023-02-15T06:18:35.968Z,30.02
2023-02-15T06:21:05.250Z,27.00
2023-02-15T06:23:33.497Z,29.00
2023-02-15T06:26:01.713Z,25.83
2023-02-15T06:28:30.052Z,27.63
2023-02-15T06:30:58.088Z,28.75
2023-02-15T06:33:26.491Z,32.95
2023-02-15T06:35:54.526Z,29.52
2023-02-15T06:38:24.194Z,31.30
2023-02-15T06:40:52.079Z,27.73
2023-02-15T06:43:20.245Z,28.33
2023-02-15T06:45:48.240Z,26.50
2023-02-15T06:48:16.628Z,27.38
2023-02-15T06:50:44.513Z,27.80
2023-02-15T06:53:12.854Z,26.95
2023-02-15T06:55:42.389Z,25.30
2023-02-15T06:58:10.560Z,32.50
2023-02-15T07:00:38.589Z,25.23
2023-02-15T07:03:06.816Z,28.05
2023-02-15T07:05:35.514Z,31.25
2023-02-15T07:08:04.018Z,29.63
2023-02-15T07:10:32.076Z,31.90
2023-02-15T07:13:01.021Z,27.70
2023-02-15T07:15:28.999Z,25.27
2023-02-15T07:17:57.225Z,24.30
2023-02-15T07:20:25.691Z,28.13
2023-02-15T07:22:54.029Z,24.90
2023-02-15T07:25:22.002Z,24.40
2023-02-15T07:27:50.184Z,23.83
2023-02-15T07:30:20.021Z,26.00
2023-02-15T07:33:04.823Z,26.27
2023-02-15T07:35:33.378Z,25.52
2023-02-15T07:38:01.634Z,25.52
2023-02-15T07:40:29.655Z,22.48
2023-02-15T07:43:00.129Z,24.13
2023-02-15T07:45:29.736Z,22.17
2023-02-15T07:47:58.020Z,24.70
2023-02-15T07:50:26.007Z,24.55
2023-02-15T07:52:54.277Z,20.77
2023-02-15T07:55:22.372Z,26.13
2023-02-15T07:57:51.211Z,25.88
2023-02-15T08:00:21.152Z,23.20
2023-02-15T08:03:11.989Z,22.75
2023-02-15T08:05:41.759Z,21.70
2023-02-15T08:08:30.710Z,22.08
2023-02-15T08:11:20.162Z,20.50
2023-02-15T08:13:54.743Z,25.65
2023-02-15T08:16:24.296Z,21.08
2023-02-15T08:18:54.235Z,24.02
2023-02-15T08:21:24.863Z,20.80
2023-02-15T08:23:53.248Z,21.23
2023-02-15T08:26:21.517Z,23.63
2023-02-15T08:28:50.052Z,25.33
2023-02-15T08:31:18.363Z,23.85
2023-02-15T08:33:47.917Z,18.10
2023-02-15T08:36:18.120Z,22.00
2023-02-15T08:38:46.753Z,24.30
2023-02-15T08:41:15.918Z,23.35
2023-02-15T08:43:45.829Z,27.17
2023-02-15T08:46:14.067Z,23.77
2023-02-15T08:48:42.987Z,26.83
2023-02-15T08:51:13.137Z,23.45
2023-02-15T08:53:43.579Z,26.23
2023-02-15T08:56:11.950Z,22.88
2023-02-15T08:58:40.639Z,24.15
2023-02-15T09:01:12.163Z,24.63
2023-02-15T09:03:41.215Z,24.88
2023-02-15T09:06:09.245Z,20.95
2023-02-15T09:08:37.462Z,24.58
2023-02-15T09:11:11.378Z,23.20
2023-02-15T09:13:39.989Z,19.60
2023-02-15T09:16:09.304Z,26.45
2023-02-15T09:18:39.574Z,18.63
2023-02-15T09:21:08.955Z,21.25
2023-02-15T09:23:37.806Z,19.33
2023-02-15T09:26:08.872Z,23.77
2023-02-15T09:28:38.929Z,20.80
2023-02-15T09:31:08.501Z,18.58
2023-02-15T09:33:37.511Z,17.38
2023-02-15T09:36:05.908Z,17.88
2023-02-15T09:38:34.391Z,22.85
2023-02-15T09:41:09.324Z,20.73
2023-02-15T09:43:41.284Z,18.27
2023-02-15T09:46:16.565Z,18.98
2023-02-15T09:48:46.229Z,20.85
2023-02-15T09:53:50.443Z,19.83
2023-02-15T09:56:21.917Z,20.98
2023-02-15T09:58:56.905Z,22.80
2023-02-15T10:01:31.605Z,16.05
2023-02-15T10:04:07.574Z,23.08
2023-02-15T10:06:43.198Z,20.88
2023-02-15T10:09:27.144Z,23.27
2023-02-15T10:12:02.177Z,24.45
2023-02-15T10:14:38.917Z,22.17
2023-02-15T10:17:13.997Z,19.55
2023-02-15T10:19:46.761Z,18.23
2023-02-15T10:22:23.444Z,21.10
2023-02-15T10:25:13.164Z,19.23
2023-02-15T10:27:44.356Z,23.98
2023-02-15T10:30:15.278Z,19.92
2023-02-15T10:32:48.235Z,23.02
2023-02-15T10:35:22.340Z,21.83
2023-02-15T10:37:55.656Z,20.98
2023-02-15T10:40:27.607Z,20.50
2023-02-15T10:43:10.336Z,19.92
2023-02-15T10:45:46.814Z,25.80
2023-02-15T10:48:22.152Z,22.58
2023-02-15T10:50:51.739Z,24.20
2023-02-15T10:53:27.092Z,20.38
2023-02-15T10:55:59.005Z,26.55
2023-02-15T10:58:34.744Z,22.17
2023-02-15T11:01:09.098Z,24.05
2023-02-15T11:03:42.506Z,26.40
2023-02-15T11:06:13.240Z,23.48
2023-02-15T11:08:43.156Z,25.58
2023-02-15T11:11:13.184Z,24.52
2023-02-15T11:13:44.283Z,21.45
2023-02-15T11:16:18.715Z,24.50
2023-02-15T11:18:50.978Z,23.98
2023-02-15T11:21:23.888Z,24.45
2023-02-15T11:23:53.476Z,27.48
2023-02-15T11:26:24.382Z,26.48
2023-02-15T11:28:56.188Z,22.35
2023-02-15T11:31:27.505Z,26.42
2023-02-15T11:33:58.411Z,27.60
2023-02-15T11:36:28.405Z,24.92
2023-02-15T11:38:59.864Z,23.50
2023-02-15T11:41:30.735Z,24.55
2023-02-15T11:44:02.037Z,23.75
2023-02-15T11:46:31.823Z,25.85
2023-02-15T11:49:00.526Z,25.70
2023-02-15T11:51:30.006Z,25.42
2023-02-15T11:53:58.351Z,22.63
2023-02-15T11:56:27.213Z,22.10
2023-02-15T11:58:57.071Z,26.20
2023-02-15T12:01:26.981Z,27.35
2023-02-15T12:03:58.124Z,20.00
2023-02-15T12:06:27.243Z,22.38
2023-02-15T12:08:58.123Z,23.85
2023-02-15T12:11:30.563Z,22.58
2023-02-15T12:13:59.845Z,21.17
2023-02-15T12:16:29.345Z,20.88
2023-02-15T12:18:59.233Z,22.63
2023-02-15T12:21:28.987Z,22.05
2023-02-15T12:23:59.049Z,22.52
2023-02-15T12:26:28.939Z,22.90
2023-02-15T12:28:59.023Z,27.40
2023-02-15T12:31:29.337Z,22.23
2023-02-15T12:34:00.049Z,23.92
2023-02-15T12:36:33.105Z,25.83
2023-02-15T12:39:05.359Z,23.58
2023-02-15T12:41:33.724Z,24.77
2023-02-15T12:44:06.016Z,22.73
2023-02-15T12:46:38.435Z,26.15
2023-02-15T12:49:20.562Z,27.23
2023-02-15T12:51:50.124Z,22.05
2023-02-15T12:54:23.399Z,27.30
2023-02-15T12:56:52.624Z,23.98
2023-02-15T12:59:23.537Z,23.02
2023-02-15T13:01:54.368Z,23.55
2023-02-15T13:04:27.490Z,23.08
2023-02-15T13:06:58.072Z,23.85
2023-02-15T13:09:30.980Z,25.00
2023-02-15T13:11:59.461Z,28.77
2023-02-15T13:14:31.093Z,23.42
2023-02-15T13:17:01.181Z,22.33
2023-02-15T13:19:33.596Z,23.63
2023-02-15T13:22:04.793Z,25.10
2023-02-15T13:24:35.827Z,22.65
2023-02-15T13:27:14.958Z,24.30
2023-02-15T13:29:46.880Z,22.08
2023-02-15T13:32:23.977Z,25.98
2023-02-15T13:34:55.978Z,23.70
2023-02-15T13:37:29.101Z,26.40
2023-02-15T13:39:58.402Z,22.10
2023-02-15T13:42:29.963Z,23.70
2023-02-15T13:45:08.584Z,26.90
2023-02-15T13:47:42.532Z,31.27
2023-02-15T13:50:18.882Z,24.52
2023-02-15T13:52:50.245Z,22.73
2023-02-15T13:55:32.997Z,22.00
2023-02-15T13:58:11.951Z,26.92
2023-02-15T14:00:42.765Z,26.02
2023-02-15T14:03:30.739Z,24.77
2023-02-15T14:06:13.498Z,25.65
2023-02-15T14:08:48.038Z,25.90
2023-02-15T14:11:21.810Z,23.38
2023-02-15T14:13:55.461Z,25.98
2023-02-15T14:16:28.729Z,27.25
2023-02-15T14:18:59.440Z,23.00
2023-02-15T14:21:31.157Z,24.40
2023-02-15T14:24:09.706Z,26.60
2023-02-15T14:26:42.941Z,28.67
2023-02-15T14:29:18.099Z,33.08
2023-02-15T14:31:48.474Z,30.35
2023-02-15T14:34:20.418Z,30.58
2023-02-15T14:36:48.945Z,36.83
2023-02-15T14:39:42.897Z,34.20
2023-02-15T14:42:14.396Z,33.47
2023-02-15T14:44:44.860Z,37.92
2023-02-15T14:47:17.505Z,36.65
2023-02-15T14:49:45.690Z,38.72
2023-02-15T14:52:14.451Z,31.40
2023-02-15T14:55:00.737Z,36.55
2023-02-15T14:57:34.119Z,32.95
2023-02-15T15:00:07.999Z,36.80
2023-02-15T15:02:44.759Z,31.50
2023-02-15T15:05:16.527Z,32.88
2023-02-15T15:07:46.514Z,35.08
2023-02-15T15:10:33.437Z,34.38
2023-02-15T15:13:22.700Z,33.92
2023-02-15T15:15:56.845Z,29.52
2023-02-15T15:18:39.765Z,34.20
2023-02-15T15:21:09.530Z,34.03
2023-02-15T15:26:20.540Z,37.17
2023-02-15T15:28:57.652Z,32.72
2023-02-15T15:31:29.886Z,37.22
2023-02-15T15:34:25.263Z,37.05
2023-02-15T15:37:28.312Z,35.88
2023-02-15T15:40:21.057Z,36.63
2023-02-15T15:42:54.420Z,34.67
2023-02-15T15:45:36.415Z,38.70
2023-02-15T15:48:13.570Z,40.88
2023-02-15T15:50:42.719Z,43.05
2023-02-15T15:53:15.071Z,43.15
2023-02-15T15:55:43.488Z,36.33
2023-02-15T15:58:16.670Z,42.05
2023-02-15T16:00:46.775Z,36.85
2023-02-15T16:03:18.149Z,44.85
2023-02-15T16:05:46.582Z,38.88
2023-02-15T16:08:15.482Z,41.03
2023-02-15T16:10:43.485Z,43.30
2023-02-15T16:13:15.401Z,41.25
2023-02-15T16:15:50.538Z,45.95
2023-02-15T16:18:21.053Z,44.75
2023-02-15T16:20:52.075Z,42.03
2023-02-15T16:23:28.218Z,44.35
2023-02-15T16:26:01.277Z,49.08
2023-02-15T16:28:30.434Z,47.25
2023-02-15T16:31:06.725Z,51.92
2023-02-15T16:33:39.164Z,47.35
2023-02-15T16:36:11.196Z,47.83
2023-02-15T16:38:54.565Z,56.13
2023-02-15T16:41:24.136Z,53.58
2023-02-15T16:43:53.325Z,47.70
2023-02-15T16:46:26.101Z,49.42
2023-02-15T16:48:56.903Z,51.72
2023-02-15T16:51:28.573Z,55.45
2023-02-15T16:53:58.068Z,61.05
2023-02-15T16:56:27.181Z,56.28
2023-02-15T17:01:26.155Z,60.38
2023-02-15T17:04:13.554Z,56.85
2023-02-15T17:06:41.888Z,63.92
2023-02-15T17:09:19.508Z,62.03
2023-02-15T17:11:47.633Z,63.05
2023-02-15T17:14:21.880Z,61.28
2023-02-15T17:16:52.541Z,66.78
2023-02-15T17:19:22.958Z,60.50
2023-02-15T17:21:52.262Z,63.53
2023-02-15T17:24:27.933Z,66.32
2023-02-15T17:27:00.831Z,68.75
2023-02-15T17:29:34.302Z,62.95
2023-02-15T17:32:06.030Z,72.25
2023-02-15T17:34:58.426Z,66.03
2023-02-15T17:37:28.512Z,64.32
2023-02-15T17:39:58.373Z,69.28
2023-02-15T17:42:26.373Z,71.78
2023-02-15T17:44:54.736Z,71.75
2023-02-15T17:47:27.885Z,67.53
2023-02-15T17:49:56.470Z,75.05
2023-02-15T17:52:25.387Z,74.30
2023-02-15T17:55:11.418Z,72.05
2023-02-15T17:57:39.954Z,82.55
2023-02-15T18:00:26.223Z,74.13
2023-02-15T18:03:13.555Z,72.13
2023-02-15T18:05:59.161Z,70.10
2023-02-15T18:08:45.963Z,68.03
2023-02-15T18:11:31.854Z,66.97
2023-02-15T18:14:01.605Z,67.55
2023-02-15T18:16:33.358Z,82.70
2023-02-15T18:19:04.867Z,72.15
2023-02-15T18:21:34.455Z,66.18
2023-02-15T18:24:02.516Z,79.45
2023-02-15T18:26:30.984Z,70.25
2023-02-15T18:28:58.941Z,65.75
2023-02-15T18:31:27.254Z,76.32
2023-02-15T18:33:56.101Z,69.43
2023-02-15T18:36:29.499Z,69.88
2023-02-15T18:38:57.965Z,67.45
2023-02-15T18:41:26.574Z,66.45
2023-02-15T18:43:55.594Z,70.63
2023-02-15T18:46:24.034Z,72.90
2023-02-15T18:48:51.953Z,69.80
2023-02-15T18:51:21.379Z,69.68
2023-02-15T18:53:51.998Z,69.47
2023-02-15T18:56:21.373Z,72.25
2023-02-15T18:58:49.932Z,73.72
2023-02-15T19:01:19.541Z,71.05
2023-02-15T19:03:48.101Z,68.07
2023-02-15T19:06:17.441Z,68.97
2023-02-15T19:08:47.441Z,68.20
2023-02-15T19:11:19.419Z,68.82
2023-02-15T19:13:49.042Z,64.50
2023-02-15T19:16:31.166Z,73.05
2023-02-15T19:19:00.035Z,69.18
2023-02-15T19:21:29.046Z,76.32
2023-02-15T19:23:58.443Z,66.00
2023-02-15T19:26:44.365Z,74.32
2023-02-15T19:29:13.856Z,67.57
2023-02-15T19:31:43.866Z,70.68
2023-02-15T19:34:16.400Z,68.65
2023-02-15T19:36:45.476Z,69.90
2023-02-15T19:39:23.304Z,70.22
2023-02-15T19:41:53.149Z,68.70
2023-02-15T19:44:21.486Z,70.03
2023-02-15T19:46:49.817Z,75.85
2023-02-15T19:49:18.291Z,72.13
2023-02-15T19:51:47.957Z,60.38
2023-02-15T19:54:22.381Z,68.57
2023-02-15T19:56:50.757Z,69.68
2023-02-15T19:59:25.169Z,67.90
2023-02-15T20:01:54.531Z,73.93
2023-02-15T20:04:23.185Z,75.55
2023-02-15T20:06:51.943Z,66.88
2023-02-15T20:09:24.378Z,74.03
2023-02-15T20:11:53.391Z,73.45
2023-02-15T20:14:23.718Z,73.53
2023-02-15T20:16:53.389Z,72.72
2023-02-15T20:19:21.942Z,64.63
2023-02-15T20:21:54.621Z,77.88
2023-02-15T20:24:23.995Z,74.60
2023-02-15T20:26:52.836Z,76.32
2023-02-15T20:29:22.642Z,78.85
2023-02-15T20:31:52.855Z,76.38
2023-02-15T20:34:24.474Z,73.50
2023-02-15T20:36:53.083Z,84.55
2023-02-15T20:39:21.126Z,82.32
2023-02-15T20:41:49.288Z,82.07
2023-02-15T20:44:21.742Z,85.10
2023-02-15T20:46:51.055Z,80.40
2023-02-15T20:49:19.239Z,79.15
2023-02-15T20:51:49.235Z,87.13
2023-02-15T20:54:18.585Z,88.75
2023-02-15T20:56:47.281Z,79.03
2023-02-15T20:59:25.376Z,86.38
2023-02-15T21:01:56.901Z,81.43
2023-02-15T21:04:26.774Z,85.85
2023-02-15T21:06:56.821Z,81.57
2023-02-15T21:09:25.016Z,95.57
2023-02-15T21:11:54.129Z,87.13
2023-02-15T21:14:23.302Z,95.53
2023-02-15T21:19:21.289Z,90.10
2023-02-15T21:21:50.663Z,86.18
2023-02-15T21:24:22.348Z,92.35
2023-02-15T21:26:50.584Z,90.55
2023-02-15T21:31:49.961Z,88.47
2023-02-15T21:34:19.680Z,91.25
2023-02-15T21:36:50.699Z,98.97
2023-02-15T21:39:22.091Z,88.18
2023-02-15T21:42:08.958Z,90.40
2023-02-15T21:44:54.639Z,86.72
2023-02-15T21:47:41.027Z,87.57
2023-02-15T21:50:28.023Z,95.78
2023-02-15T21:52:56.855Z,89.07
2023-02-15T21:55:26.509Z,91.45
2023-02-15T21:57:54.676Z,95.35
2023-02-15T22:00:24.182Z,84.15
2023-02-15T22:02:53.798Z,93.82
2023-02-15T22:07:50.434Z,93.32
2023-02-15T22:10:19.534Z,106.03
2023-02-15T22:12:51.750Z,97.75
2023-02-15T22:15:21.040Z,94.45
2023-02-15T22:17:49.447Z,96.60
2023-02-15T22:20:19.024Z,97.32
2023-02-15T22:22:47.637Z,89.85
2023-02-15T22:25:16.362Z,99.75
2023-02-15T22:27:44.818Z,93.95
2023-02-15T22:30:21.434Z,103.13
2023-02-15T22:32:49.798Z,94.63
2023-02-15T22:35:18.576Z,90.03
2023-02-15T22:37:47.227Z,108.57
2023-02-15T22:40:16.239Z,94.50
2023-02-15T22:42:46.266Z,93.07
2023-02-15T22:45:17.461Z,102.53
2023-02-15T22:47:47.626Z,92.13
2023-02-15T22:50:17.583Z,102.15
2023-02-15T22:52:45.940Z,103.43
2023-02-15T22:55:15.298Z,92.55
2023-02-15T22:57:43.757Z,102.13
2023-02-15T23:00:16.138Z,108.47
2023-02-15T23:02:44.713Z,98.72
2023-02-15T23:05:19.763Z,105.85
2023-02-15T23:07:48.514Z,109.45
2023-02-15T23:10:22.260Z,99.18
2023-02-15T23:13:08.808Z,104.22
2023-02-15T23:15:36.832Z,97.63
2023-02-15T23:18:11.916Z,102.93
2023-02-15T23:20:42.039Z,103.65
2023-02-15T23:23:11.708Z,97.43
2023-02-15T23:28:15.238Z,96.95
2023-02-15T23:30:43.195Z,99.72
2023-02-15T23:33:12.996Z,97.70
2023-02-15T23:38:18.666Z,106.15
2023-02-15T23:41:06.282Z,90.30
2023-02-15T23:43:35.016Z,106.45
2023-02-15T23:46:02.969Z,103.97
2023-02-15T23:48:34.576Z,106.10
2023-02-15T23:51:03.187Z,95.43
2023-02-15T23:53:33.434Z,97.72
2023-02-15T23:56:02.070Z,105.70
2023-02-15T23:58:36.025Z,103.05
